sensor_id;sensor_type;location;lat;lon;timestamp;P1;durP1;ratioP1;P2;durP2;ratioP2
27161;SDS011;54464;50.558;9.704;2023-08-07T00:01:45;2.47;;;1.80;;
27161;SDS011;54464;50.558;9.704;2023-08-07T00:04:11;3.63;;;2.33;;
27161;SDS011;54464;50.558;9.704;2023-08-07T00:06:36;3.40;;;2.90;;
27161;SDS011;54464;50.558;9.704;2023-08-07T00:09:02;4.87;;;3.30;;
27161;SDS011;54464;50.558;9.704;2023-08-07T00:11:27;4.10;;;3.70;;
27161;SDS011;54464;50.558;9.704;2023-08-07T00:13:53;5.33;;;3.43;;
27161;SDS011;54464;50.558;9.704;2023-08-07T00:16:19;4.87;;;3.40;;
27161;SDS011;54464;50.558;9.704;2023-08-07T00:18:45;4.60;;;3.73;;
27161;SDS011;54464;50.558;9.704;2023-08-07T00:21:10;5.20;;;4.07;;
27161;SDS011;54464;50.558;9.704;2023-08-07T00:23:36;5.30;;;3.80;;
27161;SDS011;54464;50.558;9.704;2023-08-07T00:26:02;5.23;;;3.80;;
27161;SDS011;54464;50.558;9.704;2023-08-07T00:28:28;7.30;;;3.90;;
27161;SDS011;54464;50.558;9.704;2023-08-07T00:30:54;4.87;;;4.00;;
27161;SDS011;54464;50.558;9.704;2023-08-07T00:33:20;5.27;;;3.97;;
27161;SDS011;54464;50.558;9.704;2023-08-07T00:35:45;5.50;;;3.60;;
27161;SDS011;54464;50.558;9.704;2023-08-07T00:38:11;5.23;;;3.47;;
27161;SDS011;54464;50.558;9.704;2023-08-07T00:40:37;4.60;;;2.80;;
27161;SDS011;54464;50.558;9.704;2023-08-07T00:43:04;4.73;;;3.73;;
27161;SDS011;54464;50.558;9.704;2023-08-07T00:45:30;4.23;;;3.60;;
27161;SDS011;54464;50.558;9.704;2023-08-07T00:48:08;4.70;;;3.50;;
27161;SDS011;54464;50.558;9.704;2023-08-07T00:50:34;5.67;;;3.90;;
27161;SDS011;54464;50.558;9.704;2023-08-07T00:52:59;5.70;;;3.30;;
27161;SDS011;54464;50.558;9.704;2023-08-07T00:55:26;5.20;;;3.40;;
27161;SDS011;54464;50.558;9.704;2023-08-07T00:57:51;4.63;;;3.40;;
27161;SDS011;54464;50.558;9.704;2023-08-07T01:00:18;4.00;;;3.10;;
27161;SDS011;54464;50.558;9.704;2023-08-07T01:02:45;5.67;;;3.17;;
27161;SDS011;54464;50.558;9.704;2023-08-07T01:05:14;4.10;;;3.00;;
27161;SDS011;54464;50.558;9.704;2023-08-07T01:07:40;4.63;;;3.07;;
27161;SDS011;54464;50.558;9.704;2023-08-07T01:10:05;3.43;;;2.70;;
27161;SDS011;54464;50.558;9.704;2023-08-07T01:12:48;5.67;;;3.20;;
27161;SDS011;54464;50.558;9.704;2023-08-07T01:15:25;3.57;;;2.63;;
27161;SDS011;54464;50.558;9.704;2023-08-07T01:17:55;4.33;;;2.57;;
27161;SDS011;54464;50.558;9.704;2023-08-07T01:20:22;3.67;;;2.17;;
27161;SDS011;54464;50.558;9.704;2023-08-07T01:22:48;5.07;;;2.33;;
27161;SDS011;54464;50.558;9.704;2023-08-07T01:25:14;3.30;;;2.40;;
27161;SDS011;54464;50.558;9.704;2023-08-07T01:30:29;2.07;;;1.60;;
27161;SDS011;54464;50.558;9.704;2023-08-07T01:35:27;3.40;;;1.80;;
27161;SDS011;54464;50.558;9.704;2023-08-07T01:37:56;1.40;;;1.30;;
27161;SDS011;54464;50.558;9.704;2023-08-07T01:40:23;1.50;;;1.23;;
27161;SDS011;54464;50.558;9.704;2023-08-07T01:42:49;2.30;;;1.30;;
27161;SDS011;54464;50.558;9.704;2023-08-07T01:45:22;2.40;;;1.20;;
27161;SDS011;54464;50.558;9.704;2023-08-07T01:47:51;2.10;;;1.07;;
27161;SDS011;54464;50.558;9.704;2023-08-07T01:50:18;2.93;;;0.90;;
27161;SDS011;54464;50.558;9.704;2023-08-07T01:52:44;3.30;;;1.00;;
27161;SDS011;54464;50.558;9.704;2023-08-07T01:55:11;1.33;;;1.00;;
27161;SDS011;54464;50.558;9.704;2023-08-07T01:57:40;1.87;;;1.00;;
27161;SDS011;54464;50.558;9.704;2023-08-07T02:00:06;1.10;;;1.00;;
27161;SDS011;54464;50.558;9.704;2023-08-07T02:02:33;1.00;;;0.90;;
27161;SDS011;54464;50.558;9.704;2023-08-07T02:04:59;1.87;;;0.90;;
27161;SDS011;54464;50.558;9.704;2023-08-07T02:07:25;1.23;;;1.10;;
27161;SDS011;54464;50.558;9.704;2023-08-07T02:09:50;1.00;;;0.90;;
27161;SDS011;54464;50.558;9.704;2023-08-07T02:12:16;0.87;;;0.77;;
27161;SDS011;54464;50.558;9.704;2023-08-07T02:14:41;0.90;;;0.90;;
27161;SDS011;54464;50.558;9.704;2023-08-07T02:17:07;0.80;;;0.80;;
27161;SDS011;54464;50.558;9.704;2023-08-07T02:19:32;1.00;;;0.80;;
27161;SDS011;54464;50.558;9.704;2023-08-07T02:21:58;0.90;;;0.90;;
27161;SDS011;54464;50.558;9.704;2023-08-07T02:24:24;0.90;;;0.90;;
27161;SDS011;54464;50.558;9.704;2023-08-07T02:26:49;0.70;;;0.70;;
27161;SDS011;54464;50.558;9.704;2023-08-07T02:29:15;1.50;;;0.87;;
27161;SDS011;54464;50.558;9.704;2023-08-07T02:31:40;0.97;;;0.93;;
27161;SDS011;54464;50.558;9.704;2023-08-07T02:34:06;0.73;;;0.73;;
27161;SDS011;54464;50.558;9.704;2023-08-07T02:36:32;1.10;;;0.80;;
27161;SDS011;54464;50.558;9.704;2023-08-07T02:38:57;0.80;;;0.80;;
27161;SDS011;54464;50.558;9.704;2023-08-07T02:41:23;1.43;;;1.00;;
27161;SDS011;54464;50.558;9.704;2023-08-07T02:43:48;0.97;;;0.90;;
27161;SDS011;54464;50.558;9.704;2023-08-07T02:46:14;0.80;;;0.80;;
27161;SDS011;54464;50.558;9.704;2023-08-07T02:48:39;2.20;;;1.00;;
27161;SDS011;54464;50.558;9.704;2023-08-07T02:51:05;1.63;;;1.10;;
27161;SDS011;54464;50.558;9.704;2023-08-07T02:53:31;1.40;;;1.30;;
27161;SDS011;54464;50.558;9.704;2023-08-07T02:55:56;2.73;;;1.60;;
27161;SDS011;54464;50.558;9.704;2023-08-07T02:58:22;2.10;;;1.40;;
27161;SDS011;54464;50.558;9.704;2023-08-07T03:00:47;1.83;;;1.60;;
27161;SDS011;54464;50.558;9.704;2023-08-07T03:03:13;3.83;;;1.70;;
27161;SDS011;54464;50.558;9.704;2023-08-07T03:05:47;2.20;;;1.60;;
27161;SDS011;54464;50.558;9.704;2023-08-07T03:08:14;1.80;;;1.70;;
27161;SDS011;54464;50.558;9.704;2023-08-07T03:10:40;2.43;;;2.00;;
27161;SDS011;54464;50.558;9.704;2023-08-07T03:13:06;2.07;;;1.87;;
27161;SDS011;54464;50.558;9.704;2023-08-07T03:15:31;2.67;;;2.10;;
27161;SDS011;54464;50.558;9.704;2023-08-07T03:17:57;3.50;;;2.10;;
27161;SDS011;54464;50.558;9.704;2023-08-07T03:20:22;2.53;;;2.10;;
27161;SDS011;54464;50.558;9.704;2023-08-07T03:22:48;2.70;;;2.23;;
27161;SDS011;54464;50.558;9.704;2023-08-07T03:25:13;2.60;;;2.40;;
27161;SDS011;54464;50.558;9.704;2023-08-07T03:27:39;2.90;;;1.93;;
27161;SDS011;54464;50.558;9.704;2023-08-07T03:30:05;2.23;;;2.03;;
27161;SDS011;54464;50.558;9.704;2023-08-07T03:32:31;2.20;;;2.00;;
27161;SDS011;54464;50.558;9.704;2023-08-07T03:34:56;3.17;;;2.43;;
27161;SDS011;54464;50.558;9.704;2023-08-07T03:37:22;2.20;;;2.00;;
27161;SDS011;54464;50.558;9.704;2023-08-07T03:39:47;4.03;;;2.27;;
27161;SDS011;54464;50.558;9.704;2023-08-07T03:42:13;2.53;;;2.33;;
27161;SDS011;54464;50.558;9.704;2023-08-07T03:44:42;3.10;;;2.10;;
27161;SDS011;54464;50.558;9.704;2023-08-07T03:47:08;2.43;;;1.93;;
27161;SDS011;54464;50.558;9.704;2023-08-07T03:49:33;1.80;;;1.50;;
27161;SDS011;54464;50.558;9.704;2023-08-07T03:51:59;1.73;;;1.63;;
27161;SDS011;54464;50.558;9.704;2023-08-07T03:54:24;1.50;;;1.40;;
27161;SDS011;54464;50.558;9.704;2023-08-07T03:56:50;1.50;;;1.40;;
27161;SDS011;54464;50.558;9.704;2023-08-07T03:59:16;1.50;;;1.40;;
27161;SDS011;54464;50.558;9.704;2023-08-07T04:01:45;1.60;;;1.50;;
27161;SDS011;54464;50.558;9.704;2023-08-07T04:04:10;1.47;;;1.37;;
27161;SDS011;54464;50.558;9.704;2023-08-07T04:06:36;1.50;;;1.40;;
27161;SDS011;54464;50.558;9.704;2023-08-07T04:09:02;2.87;;;1.30;;
27161;SDS011;54464;50.558;9.704;2023-08-07T04:11:28;1.53;;;1.17;;
27161;SDS011;54464;50.558;9.704;2023-08-07T04:13:54;1.37;;;1.13;;
27161;SDS011;54464;50.558;9.704;2023-08-07T04:16:20;1.60;;;1.27;;
27161;SDS011;54464;50.558;9.704;2023-08-07T04:18:45;1.17;;;1.07;;
27161;SDS011;54464;50.558;9.704;2023-08-07T04:21:11;1.13;;;1.03;;
27161;SDS011;54464;50.558;9.704;2023-08-07T04:23:36;1.40;;;1.10;;
27161;SDS011;54464;50.558;9.704;2023-08-07T04:26:02;1.13;;;1.03;;
27161;SDS011;54464;50.558;9.704;2023-08-07T04:28:28;0.97;;;0.97;;
27161;SDS011;54464;50.558;9.704;2023-08-07T04:30:54;2.13;;;0.90;;
27161;SDS011;54464;50.558;9.704;2023-08-07T04:33:20;0.87;;;0.87;;
27161;SDS011;54464;50.558;9.704;2023-08-07T04:35:46;0.97;;;0.97;;
27161;SDS011;54464;50.558;9.704;2023-08-07T04:38:12;1.13;;;1.00;;
27161;SDS011;54464;50.558;9.704;2023-08-07T04:40:43;0.83;;;0.83;;
27161;SDS011;54464;50.558;9.704;2023-08-07T04:43:13;1.40;;;0.90;;
27161;SDS011;54464;50.558;9.704;2023-08-07T04:45:39;1.20;;;1.10;;
27161;SDS011;54464;50.558;9.704;2023-08-07T04:48:06;1.07;;;0.90;;
27161;SDS011;54464;50.558;9.704;2023-08-07T04:50:32;1.07;;;0.90;;
27161;SDS011;54464;50.558;9.704;2023-08-07T04:52:58;0.80;;;0.80;;
27161;SDS011;54464;50.558;9.704;2023-08-07T04:55:23;0.80;;;0.80;;
27161;SDS011;54464;50.558;9.704;2023-08-07T04:57:49;1.00;;;1.00;;
27161;SDS011;54464;50.558;9.704;2023-08-07T05:00:16;1.73;;;1.00;;
27161;SDS011;54464;50.558;9.704;2023-08-07T05:02:42;1.80;;;0.90;;
27161;SDS011;54464;50.558;9.704;2023-08-07T05:05:08;1.23;;;1.10;;
27161;SDS011;54464;50.558;9.704;2023-08-07T05:07:34;1.10;;;0.97;;
27161;SDS011;54464;50.558;9.704;2023-08-07T05:10:01;2.00;;;1.00;;
27161;SDS011;54464;50.558;9.704;2023-08-07T05:12:27;1.17;;;1.13;;
27161;SDS011;54464;50.558;9.704;2023-08-07T05:14:53;1.30;;;1.20;;
27161;SDS011;54464;50.558;9.704;2023-08-07T05:17:19;0.90;;;0.90;;
27161;SDS011;54464;50.558;9.704;2023-08-07T05:19:44;1.50;;;0.90;;
27161;SDS011;54464;50.558;9.704;2023-08-07T05:22:10;0.90;;;0.90;;
27161;SDS011;54464;50.558;9.704;2023-08-07T05:24:35;1.20;;;0.90;;
27161;SDS011;54464;50.558;9.704;2023-08-07T05:27:12;0.83;;;0.83;;
27161;SDS011;54464;50.558;9.704;2023-08-07T05:29:38;1.37;;;0.70;;
27161;SDS011;54464;50.558;9.704;2023-08-07T05:32:13;0.70;;;0.70;;
27161;SDS011;54464;50.558;9.704;2023-08-07T05:34:39;0.87;;;0.87;;
27161;SDS011;54464;50.558;9.704;2023-08-07T05:37:06;0.83;;;0.80;;
27161;SDS011;54464;50.558;9.704;2023-08-07T05:39:32;1.47;;;0.70;;
27161;SDS011;54464;50.558;9.704;2023-08-07T05:41:58;0.87;;;0.80;;
27161;SDS011;54464;50.558;9.704;2023-08-07T05:44:24;0.90;;;0.80;;
27161;SDS011;54464;50.558;9.704;2023-08-07T05:46:49;1.40;;;1.17;;
27161;SDS011;54464;50.558;9.704;2023-08-07T05:49:15;2.80;;;1.10;;
27161;SDS011;54464;50.558;9.704;2023-08-07T05:51:41;1.50;;;1.30;;
27161;SDS011;54464;50.558;9.704;2023-08-07T05:54:06;1.50;;;1.40;;
27161;SDS011;54464;50.558;9.704;2023-08-07T05:56:32;1.93;;;1.40;;
27161;SDS011;54464;50.558;9.704;2023-08-07T05:58:58;1.40;;;1.30;;
27161;SDS011;54464;50.558;9.704;2023-08-07T06:01:23;1.70;;;1.60;;
27161;SDS011;54464;50.558;9.704;2023-08-07T06:03:55;1.87;;;1.77;;
27161;SDS011;54464;50.558;9.704;2023-08-07T06:06:21;1.77;;;1.67;;
27161;SDS011;54464;50.558;9.704;2023-08-07T06:08:46;2.00;;;1.80;;
27161;SDS011;54464;50.558;9.704;2023-08-07T06:11:12;2.27;;;2.00;;
27161;SDS011;54464;50.558;9.704;2023-08-07T06:13:37;2.13;;;1.90;;
27161;SDS011;54464;50.558;9.704;2023-08-07T06:16:05;1.70;;;1.47;;
27161;SDS011;54464;50.558;9.704;2023-08-07T06:18:31;1.90;;;1.63;;
27161;SDS011;54464;50.558;9.704;2023-08-07T06:20:56;1.73;;;1.63;;
27161;SDS011;54464;50.558;9.704;2023-08-07T06:23:22;1.87;;;1.70;;
27161;SDS011;54464;50.558;9.704;2023-08-07T06:25:48;2.00;;;1.90;;
27161;SDS011;54464;50.558;9.704;2023-08-07T06:28:13;1.83;;;1.73;;
27161;SDS011;54464;50.558;9.704;2023-08-07T06:30:39;2.10;;;1.50;;
27161;SDS011;54464;50.558;9.704;2023-08-07T06:33:04;1.60;;;1.50;;
27161;SDS011;54464;50.558;9.704;2023-08-07T06:35:30;1.80;;;1.70;;
27161;SDS011;54464;50.558;9.704;2023-08-07T06:37:55;1.70;;;1.50;;
27161;SDS011;54464;50.558;9.704;2023-08-07T06:40:21;2.13;;;1.60;;
27161;SDS011;54464;50.558;9.704;2023-08-07T06:42:47;1.50;;;1.30;;
27161;SDS011;54464;50.558;9.704;2023-08-07T06:45:12;2.03;;;1.27;;
27161;SDS011;54464;50.558;9.704;2023-08-07T06:47:38;1.90;;;1.50;;
27161;SDS011;54464;50.558;9.704;2023-08-07T06:50:03;1.40;;;1.30;;
27161;SDS011;54464;50.558;9.704;2023-08-07T06:52:30;1.43;;;1.33;;
27161;SDS011;54464;50.558;9.704;2023-08-07T06:54:55;2.70;;;1.30;;
27161;SDS011;54464;50.558;9.704;2023-08-07T06:57:21;1.57;;;1.30;;
27161;SDS011;54464;50.558;9.704;2023-08-07T06:59:46;2.30;;;1.60;;
27161;SDS011;54464;50.558;9.704;2023-08-07T07:02:12;1.90;;;1.70;;
27161;SDS011;54464;50.558;9.704;2023-08-07T07:04:38;2.80;;;1.77;;
27161;SDS011;54464;50.558;9.704;2023-08-07T07:07:03;1.97;;;1.67;;
27161;SDS011;54464;50.558;9.704;2023-08-07T07:09:29;3.00;;;1.80;;
27161;SDS011;54464;50.558;9.704;2023-08-07T07:11:55;3.70;;;2.03;;
27161;SDS011;54464;50.558;9.704;2023-08-07T07:14:21;2.67;;;2.47;;
27161;SDS011;54464;50.558;9.704;2023-08-07T07:16:46;3.90;;;2.50;;
27161;SDS011;54464;50.558;9.704;2023-08-07T07:19:12;2.97;;;2.33;;
27161;SDS011;54464;50.558;9.704;2023-08-07T07:21:38;3.13;;;2.40;;
27161;SDS011;54464;50.558;9.704;2023-08-07T07:24:03;3.13;;;2.83;;
27161;SDS011;54464;50.558;9.704;2023-08-07T07:26:30;3.57;;;2.83;;
27161;SDS011;54464;50.558;9.704;2023-08-07T07:28:55;3.20;;;2.90;;
27161;SDS011;54464;50.558;9.704;2023-08-07T07:31:21;4.57;;;3.00;;
27161;SDS011;54464;50.558;9.704;2023-08-07T07:33:47;4.63;;;2.97;;
27161;SDS011;54464;50.558;9.704;2023-08-07T07:36:14;3.27;;;2.53;;
27161;SDS011;54464;50.558;9.704;2023-08-07T07:38:40;3.53;;;2.90;;
27161;SDS011;54464;50.558;9.704;2023-08-07T07:41:06;3.80;;;2.93;;
27161;SDS011;54464;50.558;9.704;2023-08-07T07:43:35;3.87;;;3.40;;
27161;SDS011;54464;50.558;9.704;2023-08-07T07:46:01;2.70;;;2.50;;
27161;SDS011;54464;50.558;9.704;2023-08-07T07:48:32;3.10;;;2.77;;
27161;SDS011;54464;50.558;9.704;2023-08-07T07:51:18;4.87;;;3.20;;
27161;SDS011;54464;50.558;9.704;2023-08-07T07:53:47;5.83;;;3.37;;
27161;SDS011;54464;50.558;9.704;2023-08-07T07:56:13;4.23;;;3.47;;
27161;SDS011;54464;50.558;9.704;2023-08-07T07:58:38;3.47;;;3.03;;
27161;SDS011;54464;50.558;9.704;2023-08-07T08:01:05;4.87;;;3.33;;
27161;SDS011;54464;50.558;9.704;2023-08-07T08:03:32;3.80;;;2.40;;
27161;SDS011;54464;50.558;9.704;2023-08-07T08:05:57;3.20;;;2.90;;
27161;SDS011;54464;50.558;9.704;2023-08-07T08:08:23;2.97;;;2.67;;
27161;SDS011;54464;50.558;9.704;2023-08-07T08:10:49;3.43;;;2.70;;
27161;SDS011;54464;50.558;9.704;2023-08-07T08:13:16;2.90;;;2.17;;
27161;SDS011;54464;50.558;9.704;2023-08-07T08:15:41;3.07;;;2.70;;
27161;SDS011;54464;50.558;9.704;2023-08-07T08:18:07;2.37;;;2.17;;
27161;SDS011;54464;50.558;9.704;2023-08-07T08:20:33;3.43;;;2.30;;
27161;SDS011;54464;50.558;9.704;2023-08-07T08:22:59;2.70;;;2.50;;
27161;SDS011;54464;50.558;9.704;2023-08-07T08:25:24;4.07;;;2.30;;
27161;SDS011;54464;50.558;9.704;2023-08-07T08:27:50;2.73;;;2.53;;
27161;SDS011;54464;50.558;9.704;2023-08-07T08:30:16;3.07;;;2.67;;
27161;SDS011;54464;50.558;9.704;2023-08-07T08:32:42;2.87;;;2.60;;
27161;SDS011;54464;50.558;9.704;2023-08-07T08:35:08;2.83;;;2.20;;
27161;SDS011;54464;50.558;9.704;2023-08-07T08:37:33;3.30;;;2.30;;
27161;SDS011;54464;50.558;9.704;2023-08-07T08:39:59;3.73;;;2.60;;
27161;SDS011;54464;50.558;9.704;2023-08-07T08:42:28;3.17;;;2.47;;
27161;SDS011;54464;50.558;9.704;2023-08-07T08:44:56;3.00;;;2.60;;
27161;SDS011;54464;50.558;9.704;2023-08-07T08:47:25;3.17;;;2.80;;
27161;SDS011;54464;50.558;9.704;2023-08-07T08:50:01;3.10;;;2.80;;
27161;SDS011;54464;50.558;9.704;2023-08-07T08:52:30;3.47;;;2.20;;
27161;SDS011;54464;50.558;9.704;2023-08-07T08:54:57;2.90;;;2.10;;
27161;SDS011;54464;50.558;9.704;2023-08-07T08:57:26;3.27;;;2.50;;
27161;SDS011;54464;50.558;9.704;2023-08-07T08:59:53;2.50;;;2.20;;
27161;SDS011;54464;50.558;9.704;2023-08-07T09:02:21;4.00;;;2.30;;
27161;SDS011;54464;50.558;9.704;2023-08-07T09:04:47;2.80;;;2.60;;
27161;SDS011;54464;50.558;9.704;2023-08-07T09:07:13;2.40;;;2.20;;
27161;SDS011;54464;50.558;9.704;2023-08-07T09:09:40;2.50;;;2.07;;
27161;SDS011;54464;50.558;9.704;2023-08-07T09:12:19;2.40;;;2.20;;
27161;SDS011;54464;50.558;9.704;2023-08-07T09:14:49;2.53;;;2.27;;
27161;SDS011;54464;50.558;9.704;2023-08-07T09:17:22;3.23;;;2.17;;
27161;SDS011;54464;50.558;9.704;2023-08-07T09:19:51;2.10;;;1.90;;
27161;SDS011;54464;50.558;9.704;2023-08-07T09:22:18;2.10;;;1.83;;
27161;SDS011;54464;50.558;9.704;2023-08-07T09:24:44;2.07;;;1.90;;
27161;SDS011;54464;50.558;9.704;2023-08-07T09:27:10;2.20;;;1.97;;
27161;SDS011;54464;50.558;9.704;2023-08-07T09:29:36;2.13;;;2.00;;
27161;SDS011;54464;50.558;9.704;2023-08-07T09:32:22;2.60;;;2.40;;
27161;SDS011;54464;50.558;9.704;2023-08-07T09:34:49;2.17;;;2.00;;
27161;SDS011;54464;50.558;9.704;2023-08-07T09:37:16;3.17;;;2.57;;
27161;SDS011;54464;50.558;9.704;2023-08-07T09:39:41;3.23;;;2.40;;
27161;SDS011;54464;50.558;9.704;2023-08-07T09:42:19;3.03;;;2.67;;
27161;SDS011;54464;50.558;9.704;2023-08-07T09:44:45;2.77;;;2.57;;
27161;SDS011;54464;50.558;9.704;2023-08-07T09:47:12;3.43;;;2.73;;
27161;SDS011;54464;50.558;9.704;2023-08-07T09:49:38;3.23;;;2.93;;
27161;SDS011;54464;50.558;9.704;2023-08-07T09:52:05;3.17;;;2.80;;
27161;SDS011;54464;50.558;9.704;2023-08-07T09:54:32;3.27;;;3.00;;
27161;SDS011;54464;50.558;9.704;2023-08-07T09:56:59;2.70;;;2.50;;
27161;SDS011;54464;50.558;9.704;2023-08-07T09:59:26;2.60;;;2.40;;
27161;SDS011;54464;50.558;9.704;2023-08-07T10:01:53;4.63;;;3.17;;
27161;SDS011;54464;50.558;9.704;2023-08-07T10:04:21;4.07;;;3.20;;
27161;SDS011;54464;50.558;9.704;2023-08-07T10:06:46;3.17;;;2.87;;
27161;SDS011;54464;50.558;9.704;2023-08-07T10:09:13;3.63;;;2.60;;
27161;SDS011;54464;50.558;9.704;2023-08-07T10:11:39;3.43;;;2.77;;
27161;SDS011;54464;50.558;9.704;2023-08-07T10:14:06;2.40;;;2.20;;
27161;SDS011;54464;50.558;9.704;2023-08-07T10:16:31;2.23;;;2.03;;
27161;SDS011;54464;50.558;9.704;2023-08-07T10:18:57;2.60;;;2.00;;
27161;SDS011;54464;50.558;9.704;2023-08-07T10:21:23;2.97;;;2.30;;
27161;SDS011;54464;50.558;9.704;2023-08-07T10:23:50;2.53;;;2.00;;
27161;SDS011;54464;50.558;9.704;2023-08-07T10:26:19;2.77;;;2.20;;
27161;SDS011;54464;50.558;9.704;2023-08-07T10:28:46;3.23;;;2.10;;
27161;SDS011;54464;50.558;9.704;2023-08-07T10:31:15;2.33;;;2.13;;
27161;SDS011;54464;50.558;9.704;2023-08-07T10:33:41;2.70;;;2.07;;
27161;SDS011;54464;50.558;9.704;2023-08-07T10:36:08;2.63;;;1.93;;
27161;SDS011;54464;50.558;9.704;2023-08-07T10:38:35;2.33;;;2.10;;
27161;SDS011;54464;50.558;9.704;2023-08-07T10:41:02;1.90;;;1.80;;
27161;SDS011;54464;50.558;9.704;2023-08-07T10:43:32;2.23;;;1.70;;
27161;SDS011;54464;50.558;9.704;2023-08-07T10:46:05;2.20;;;2.00;;
27161;SDS011;54464;50.558;9.704;2023-08-07T10:48:40;1.97;;;1.70;;
27161;SDS011;54464;50.558;9.704;2023-08-07T10:51:06;1.60;;;1.50;;
27161;SDS011;54464;50.558;9.704;2023-08-07T10:53:33;2.13;;;1.67;;
27161;SDS011;54464;50.558;9.704;2023-08-07T10:56:17;1.87;;;1.50;;
27161;SDS011;54464;50.558;9.704;2023-08-07T10:58:47;1.53;;;1.43;;
27161;SDS011;54464;50.558;9.704;2023-08-07T11:03:56;2.03;;;1.50;;
27161;SDS011;54464;50.558;9.704;2023-08-07T11:06:26;1.67;;;1.57;;
27161;SDS011;54464;50.558;9.704;2023-08-07T11:08:58;1.60;;;1.50;;
27161;SDS011;54464;50.558;9.704;2023-08-07T11:11:24;1.80;;;1.70;;
27161;SDS011;54464;50.558;9.704;2023-08-07T11:13:51;1.93;;;1.63;;
27161;SDS011;54464;50.558;9.704;2023-08-07T11:16:17;2.17;;;1.97;;
27161;SDS011;54464;50.558;9.704;2023-08-07T11:18:45;1.60;;;1.50;;
27161;SDS011;54464;50.558;9.704;2023-08-07T11:21:12;1.70;;;1.40;;
27161;SDS011;54464;50.558;9.704;2023-08-07T11:23:38;2.53;;;1.80;;
27161;SDS011;54464;50.558;9.704;2023-08-07T11:26:05;1.40;;;1.30;;
27161;SDS011;54464;50.558;9.704;2023-08-07T11:28:31;2.43;;;1.50;;
27161;SDS011;54464;50.558;9.704;2023-08-07T11:30:57;1.80;;;1.70;;
27161;SDS011;54464;50.558;9.704;2023-08-07T11:33:24;1.80;;;1.70;;
27161;SDS011;54464;50.558;9.704;2023-08-07T11:35:50;2.03;;;1.40;;
27161;SDS011;54464;50.558;9.704;2023-08-07T11:38:29;1.93;;;1.10;;
27161;SDS011;54464;50.558;9.704;2023-08-07T11:40:56;1.60;;;1.40;;
27161;SDS011;54464;50.558;9.704;2023-08-07T11:43:29;1.40;;;1.30;;
27161;SDS011;54464;50.558;9.704;2023-08-07T11:45:58;1.03;;;0.93;;
27161;SDS011;54464;50.558;9.704;2023-08-07T11:48:26;1.40;;;1.30;;
27161;SDS011;54464;50.558;9.704;2023-08-07T11:50:53;1.07;;;0.97;;
27161;SDS011;54464;50.558;9.704;2023-08-07T11:53:22;1.10;;;1.00;;
27161;SDS011;54464;50.558;9.704;2023-08-07T11:55:56;1.00;;;0.90;;
27161;SDS011;54464;50.558;9.704;2023-08-07T11:58:22;1.13;;;1.03;;
27161;SDS011;54464;50.558;9.704;2023-08-07T12:00:50;0.80;;;0.80;;
27161;SDS011;54464;50.558;9.704;2023-08-07T12:06:15;0.83;;;0.83;;
27161;SDS011;54464;50.558;9.704;2023-08-07T12:08:41;0.97;;;0.87;;
27161;SDS011;54464;50.558;9.704;2023-08-07T12:11:08;1.03;;;0.80;;
27161;SDS011;54464;50.558;9.704;2023-08-07T12:13:38;1.57;;;1.07;;
27161;SDS011;54464;50.558;9.704;2023-08-07T12:16:05;1.03;;;0.83;;
27161;SDS011;54464;50.558;9.704;2023-08-07T12:18:31;0.93;;;0.90;;
27161;SDS011;54464;50.558;9.704;2023-08-07T12:20:58;0.80;;;0.80;;
27161;SDS011;54464;50.558;9.704;2023-08-07T12:23:25;1.47;;;0.90;;
27161;SDS011;54464;50.558;9.704;2023-08-07T12:25:50;1.03;;;0.93;;
27161;SDS011;54464;50.558;9.704;2023-08-07T12:28:17;1.20;;;1.07;;
27161;SDS011;54464;50.558;9.704;2023-08-07T12:30:47;1.17;;;0.93;;
27161;SDS011;54464;50.558;9.704;2023-08-07T12:33:13;0.93;;;0.93;;
27161;SDS011;54464;50.558;9.704;2023-08-07T12:35:39;1.00;;;0.93;;
27161;SDS011;54464;50.558;9.704;2023-08-07T12:38:06;1.50;;;1.30;;
27161;SDS011;54464;50.558;9.704;2023-08-07T12:40:33;1.40;;;1.30;;
27161;SDS011;54464;50.558;9.704;2023-08-07T12:43:01;2.10;;;1.23;;
27161;SDS011;54464;50.558;9.704;2023-08-07T12:45:27;2.30;;;1.20;;
27161;SDS011;54464;50.558;9.704;2023-08-07T12:47:52;1.30;;;1.17;;
27161;SDS011;54464;50.558;9.704;2023-08-07T12:50:18;1.40;;;1.30;;
27161;SDS011;54464;50.558;9.704;2023-08-07T12:52:44;1.43;;;1.27;;
27161;SDS011;54464;50.558;9.704;2023-08-07T12:55:09;1.87;;;1.27;;
27161;SDS011;54464;50.558;9.704;2023-08-07T12:57:36;1.60;;;1.30;;
27161;SDS011;54464;50.558;9.704;2023-08-07T13:00:03;1.97;;;1.70;;
27161;SDS011;54464;50.558;9.704;2023-08-07T13:02:29;3.13;;;1.50;;
27161;SDS011;54464;50.558;9.704;2023-08-07T13:04:55;3.57;;;1.60;;
27161;SDS011;54464;50.558;9.704;2023-08-07T13:07:22;2.07;;;1.50;;
27161;SDS011;54464;50.558;9.704;2023-08-07T13:09:48;1.70;;;1.57;;
27161;SDS011;54464;50.558;9.704;2023-08-07T13:12:14;4.03;;;1.77;;
27161;SDS011;54464;50.558;9.704;2023-08-07T13:14:40;2.13;;;1.90;;
27161;SDS011;54464;50.558;9.704;2023-08-07T13:17:05;2.90;;;1.73;;
27161;SDS011;54464;50.558;9.704;2023-08-07T13:19:31;3.10;;;1.53;;
27161;SDS011;54464;50.558;9.704;2023-08-07T13:21:56;2.10;;;1.63;;
27161;SDS011;54464;50.558;9.704;2023-08-07T13:24:22;1.93;;;1.63;;
27161;SDS011;54464;50.558;9.704;2023-08-07T13:26:48;2.63;;;1.57;;
27161;SDS011;54464;50.558;9.704;2023-08-07T13:29:13;2.83;;;1.43;;
27161;SDS011;54464;50.558;9.704;2023-08-07T13:31:39;2.30;;;1.43;;
27161;SDS011;54464;50.558;9.704;2023-08-07T13:34:11;2.30;;;1.70;;
27161;SDS011;54464;50.558;9.704;2023-08-07T13:36:37;4.03;;;2.07;;
27161;SDS011;54464;50.558;9.704;2023-08-07T13:39:03;3.37;;;2.10;;
27161;SDS011;54464;50.558;9.704;2023-08-07T13:41:30;5.73;;;2.50;;
27161;SDS011;54464;50.558;9.704;2023-08-07T13:43:55;3.83;;;1.93;;
27161;SDS011;54464;50.558;9.704;2023-08-07T13:46:21;2.63;;;1.80;;
27161;SDS011;54464;50.558;9.704;2023-08-07T13:48:49;5.60;;;1.80;;
27161;SDS011;54464;50.558;9.704;2023-08-07T13:51:15;2.67;;;1.57;;
27161;SDS011;54464;50.558;9.704;2023-08-07T13:53:41;4.93;;;1.90;;
27161;SDS011;54464;50.558;9.704;2023-08-07T13:56:07;3.57;;;1.97;;
27161;SDS011;54464;50.558;9.704;2023-08-07T13:58:36;5.53;;;3.47;;
27161;SDS011;54464;50.558;9.704;2023-08-07T14:01:01;3.40;;;1.97;;
27161;SDS011;54464;50.558;9.704;2023-08-07T14:03:27;4.93;;;1.90;;
27161;SDS011;54464;50.558;9.704;2023-08-07T14:05:52;3.30;;;1.90;;
27161;SDS011;54464;50.558;9.704;2023-08-07T14:08:18;2.13;;;1.80;;
27161;SDS011;54464;50.558;9.704;2023-08-07T14:10:44;3.67;;;1.70;;
27161;SDS011;54464;50.558;9.704;2023-08-07T14:13:09;2.53;;;1.47;;
27161;SDS011;54464;50.558;9.704;2023-08-07T14:15:36;2.77;;;1.63;;
27161;SDS011;54464;50.558;9.704;2023-08-07T14:18:02;3.10;;;1.83;;
27161;SDS011;54464;50.558;9.704;2023-08-07T14:20:27;2.37;;;1.83;;
27161;SDS011;54464;50.558;9.704;2023-08-07T14:22:53;3.47;;;2.00;;
27161;SDS011;54464;50.558;9.704;2023-08-07T14:25:19;4.23;;;2.00;;
27161;SDS011;54464;50.558;9.704;2023-08-07T14:27:47;2.77;;;2.03;;
27161;SDS011;54464;50.558;9.704;2023-08-07T14:30:12;3.03;;;2.03;;
27161;SDS011;54464;50.558;9.704;2023-08-07T14:32:38;2.87;;;1.87;;
27161;SDS011;54464;50.558;9.704;2023-08-07T14:35:04;4.43;;;1.60;;
27161;SDS011;54464;50.558;9.704;2023-08-07T14:37:30;4.67;;;2.10;;
27161;SDS011;54464;50.558;9.704;2023-08-07T14:39:56;4.10;;;1.60;;
27161;SDS011;54464;50.558;9.704;2023-08-07T14:42:22;2.27;;;1.27;;
27161;SDS011;54464;50.558;9.704;2023-08-07T14:44:48;4.07;;;1.67;;
27161;SDS011;54464;50.558;9.704;2023-08-07T14:47:13;3.20;;;1.57;;
27161;SDS011;54464;50.558;9.704;2023-08-07T14:49:39;3.37;;;1.40;;
27161;SDS011;54464;50.558;9.704;2023-08-07T14:52:05;2.73;;;1.30;;
27161;SDS011;54464;50.558;9.704;2023-08-07T14:54:32;3.07;;;1.33;;
27161;SDS011;54464;50.558;9.704;2023-08-07T14:56:58;2.47;;;1.23;;